createdAt,value
2023-07-28T00:00:06.530Z,18.43
2023-07-28T00:01:06.512Z,18.50
2023-07-28T00:02:27.539Z,18.45
2023-07-28T00:03:06.630Z,18.41
2023-07-28T00:04:06.552Z,18.40
2023-07-28T00:05:06.501Z,18.50
2023-07-28T00:06:06.494Z,18.52
2023-07-28T00:07:06.486Z,18.37
2023-07-28T00:08:27.495Z,18.44
2023-07-28T00:09:06.495Z,18.43
2023-07-28T00:10:06.483Z,18.45
2023-07-28T00:11:06.467Z,18.43
2023-07-28T00:12:06.465Z,18.55
2023-07-28T00:13:06.454Z,18.49
2023-07-28T00:14:27.487Z,18.40
2023-07-28T00:15:06.437Z,18.40
2023-07-28T00:16:06.476Z,18.45
2023-07-28T00:17:06.439Z,18.50
2023-07-28T00:18:06.453Z,18.49
2023-07-28T00:19:06.418Z,18.50
2023-07-28T00:20:27.424Z,18.50
2023-07-28T00:21:06.408Z,18.41
2023-07-28T00:22:06.415Z,18.38
2023-07-28T00:23:06.391Z,18.43
2023-07-28T00:24:06.392Z,18.47
2023-07-28T00:25:06.409Z,18.41
2023-07-28T00:26:27.421Z,18.41
2023-07-28T00:27:06.370Z,18.45
2023-07-28T00:28:06.396Z,18.52
2023-07-28T00:29:06.363Z,18.43
2023-07-28T00:30:06.367Z,18.44
2023-07-28T00:31:06.382Z,18.49
2023-07-28T00:32:27.396Z,18.49
2023-07-28T00:33:06.356Z,18.49
2023-07-28T00:34:06.348Z,18.52
2023-07-28T00:35:06.331Z,18.52
2023-07-28T00:36:06.334Z,18.49
2023-07-28T00:37:06.361Z,18.47
2023-07-28T00:38:27.339Z,18.55
2023-07-28T00:39:06.312Z,18.50
2023-07-28T00:40:06.332Z,18.53
2023-07-28T00:41:06.299Z,18.52
2023-07-28T00:42:06.296Z,18.47
2023-07-28T00:43:06.293Z,18.44
2023-07-28T00:44:27.320Z,18.53
2023-07-28T00:45:06.279Z,18.49
2023-07-28T00:46:06.303Z,18.44
2023-07-28T00:47:06.267Z,18.50
2023-07-28T00:48:06.326Z,18.49
2023-07-28T00:49:06.250Z,18.49
2023-07-28T00:50:27.263Z,18.41
2023-07-28T00:51:06.239Z,18.44
2023-07-28T00:52:06.241Z,18.45
2023-07-28T00:53:06.230Z,18.50
2023-07-28T00:54:06.221Z,18.49
2023-07-28T00:55:06.225Z,18.52
2023-07-28T00:56:27.223Z,18.50
2023-07-28T00:57:06.224Z,18.49
2023-07-28T00:58:06.200Z,18.53
2023-07-28T00:59:06.200Z,18.49
2023-07-28T01:00:06.196Z,18.49
2023-07-28T01:01:06.205Z,18.45
2023-07-28T01:02:27.239Z,18.50
2023-07-28T01:03:06.213Z,18.52
2023-07-28T01:04:06.165Z,18.50
2023-07-28T01:05:06.200Z,18.52
2023-07-28T01:06:06.162Z,18.47
2023-07-28T01:07:06.165Z,18.53
2023-07-28T01:08:27.160Z,18.47
2023-07-28T01:09:06.146Z,18.50
2023-07-28T01:10:06.138Z,18.45
2023-07-28T01:11:06.142Z,18.49
2023-07-28T01:12:06.128Z,18.47
2023-07-28T01:13:06.134Z,18.45
2023-07-28T01:14:27.120Z,18.47
2023-07-28T01:15:06.139Z,18.47
2023-07-28T01:16:06.124Z,18.49
2023-07-28T01:17:06.112Z,18.50
2023-07-28T01:18:06.093Z,18.47
2023-07-28T01:19:06.093Z,18.49
2023-07-28T01:20:27.089Z,18.47
2023-07-28T01:21:06.086Z,18.49
2023-07-28T01:22:06.072Z,18.47
2023-07-28T01:23:06.076Z,18.49
2023-07-28T01:24:06.055Z,18.50
2023-07-28T01:25:06.080Z,18.44
2023-07-28T01:26:27.059Z,18.41
2023-07-28T01:27:06.055Z,18.47
2023-07-28T01:28:06.084Z,18.44
2023-07-28T01:29:06.040Z,18.45
2023-07-28T01:30:06.029Z,18.49
2023-07-28T01:31:06.044Z,18.41
2023-07-28T01:32:27.035Z,18.43
2023-07-28T01:33:06.049Z,18.44
2023-07-28T01:34:06.009Z,18.44
2023-07-28T01:35:06.001Z,18.41
2023-07-28T01:36:06.002Z,18.43
2023-07-28T01:37:06.015Z,18.49
2023-07-28T01:38:26.991Z,18.44
2023-07-28T01:39:05.983Z,18.45
2023-07-28T01:40:05.972Z,18.53
2023-07-28T01:41:05.975Z,18.47
2023-07-28T01:42:05.964Z,18.49
2023-07-28T01:43:05.970Z,18.43
2023-07-28T01:44:26.965Z,18.45
2023-07-28T01:45:05.949Z,18.38
2023-07-28T01:46:05.980Z,18.38
2023-07-28T01:47:05.941Z,18.47
2023-07-28T01:48:05.985Z,18.43
2023-07-28T01:49:05.922Z,18.49
2023-07-28T01:50:26.932Z,18.43
2023-07-28T01:51:05.910Z,18.44
2023-07-28T01:52:05.918Z,18.41
2023-07-28T01:53:05.899Z,18.45
2023-07-28T01:54:05.908Z,18.40
2023-07-28T01:55:05.886Z,18.50
2023-07-28T01:56:26.903Z,18.47
2023-07-28T01:57:05.883Z,18.41
2023-07-28T01:58:05.870Z,18.47
2023-07-28T01:59:06.368Z,18.45
2023-07-28T02:00:05.865Z,18.47
2023-07-28T02:01:05.925Z,18.38
2023-07-28T02:02:26.898Z,18.47
2023-07-28T02:03:05.914Z,18.38
2023-07-28T02:04:05.856Z,18.41
2023-07-28T02:05:05.846Z,18.47
2023-07-28T02:06:05.842Z,18.49
2023-07-28T02:07:05.830Z,18.38
2023-07-28T02:08:26.825Z,18.40
2023-07-28T02:09:05.825Z,18.41
2023-07-28T02:10:05.817Z,18.41
2023-07-28T02:11:05.797Z,18.47
2023-07-28T02:12:05.799Z,18.47
2023-07-28T02:13:05.789Z,18.40
2023-07-28T02:14:26.794Z,18.47
2023-07-28T02:15:05.790Z,18.44
2023-07-28T02:16:05.776Z,18.44
2023-07-28T02:17:05.822Z,18.40
2023-07-28T02:18:05.831Z,18.50
2023-07-28T02:19:05.757Z,18.45
2023-07-28T02:20:26.768Z,18.45
2023-07-28T02:21:05.743Z,18.44
2023-07-28T02:22:05.746Z,18.43
2023-07-28T02:23:05.731Z,18.44
2023-07-28T02:24:05.732Z,18.47
2023-07-28T02:25:05.717Z,18.43
2023-07-28T02:26:26.738Z,18.41
2023-07-28T02:27:05.711Z,18.44
2023-07-28T02:28:05.715Z,18.37
2023-07-28T02:29:05.701Z,18.47
2023-07-28T02:30:05.698Z,18.37
2023-07-28T02:31:05.747Z,18.45
2023-07-28T02:32:26.763Z,18.43
2023-07-28T02:33:05.702Z,18.43
2023-07-28T02:34:05.675Z,18.49
2023-07-28T02:35:05.665Z,18.43
2023-07-28T02:36:05.671Z,18.50
2023-07-28T02:37:05.652Z,18.41
2023-07-28T02:38:26.696Z,18.45
2023-07-28T02:39:05.637Z,18.49
2023-07-28T02:40:05.641Z,18.44
2023-07-28T02:41:05.630Z,18.45
2023-07-28T02:42:05.632Z,18.41
2023-07-28T02:43:05.615Z,18.44
2023-07-28T02:44:26.633Z,18.44
2023-07-28T02:45:05.619Z,18.45
2023-07-28T02:46:05.619Z,18.47
2023-07-28T02:47:05.593Z,18.37
2023-07-28T02:48:05.623Z,18.40
2023-07-28T02:49:05.587Z,18.43
2023-07-28T02:50:26.599Z,18.44
2023-07-28T02:51:05.574Z,18.41
2023-07-28T02:52:05.587Z,18.43
2023-07-28T02:53:05.563Z,18.43
2023-07-28T02:54:05.580Z,18.44
2023-07-28T02:55:05.557Z,18.43
2023-07-28T02:56:26.567Z,18.44
2023-07-28T02:57:05.543Z,18.43
2023-07-28T02:58:05.540Z,18.45
2023-07-28T02:59:05.562Z,18.41
2023-07-28T03:00:05.536Z,18.44
2023-07-28T03:01:05.523Z,18.41
2023-07-28T03:02:26.571Z,18.40
2023-07-28T03:03:05.582Z,18.45
2023-07-28T03:04:05.511Z,18.45
2023-07-28T03:05:05.506Z,18.38
2023-07-28T03:06:05.509Z,18.38
2023-07-28T03:07:05.484Z,18.43
2023-07-28T03:08:26.494Z,18.37
2023-07-28T03:09:05.477Z,18.43
2023-07-28T03:10:05.477Z,18.49
2023-07-28T03:11:05.464Z,18.45
2023-07-28T03:12:05.467Z,18.43
2023-07-28T03:13:05.452Z,18.44
2023-07-28T03:14:26.470Z,18.41
2023-07-28T03:15:05.447Z,18.40
2023-07-28T03:16:05.501Z,18.47
2023-07-28T03:17:05.436Z,18.37
2023-07-28T03:18:05.444Z,18.44
2023-07-28T03:19:05.431Z,18.49
2023-07-28T03:20:26.442Z,18.49
2023-07-28T03:21:05.407Z,18.47
2023-07-28T03:22:05.422Z,18.49
2023-07-28T03:23:05.396Z,18.49
2023-07-28T03:24:05.406Z,18.38
2023-07-28T03:25:05.393Z,18.35
2023-07-28T03:26:26.396Z,18.50
2023-07-28T03:27:05.377Z,18.49
2023-07-28T03:28:05.392Z,18.33
2023-07-28T03:29:05.385Z,18.38
2023-07-28T03:30:05.389Z,18.52
2023-07-28T03:31:05.356Z,18.52
2023-07-28T03:32:26.389Z,18.49
2023-07-28T03:33:05.384Z,18.40
2023-07-28T03:34:05.365Z,18.33
2023-07-28T03:35:05.338Z,18.41
2023-07-28T03:36:05.339Z,18.38
2023-07-28T03:37:05.341Z,18.50
2023-07-28T03:38:26.332Z,18.50
2023-07-28T03:39:05.307Z,18.35
2023-07-28T03:40:05.314Z,18.49
2023-07-28T03:41:05.312Z,18.49
2023-07-28T03:42:05.307Z,18.43
2023-07-28T03:43:05.292Z,18.49
2023-07-28T03:44:26.294Z,18.50
2023-07-28T03:45:05.279Z,18.50
2023-07-28T03:46:05.317Z,18.43
2023-07-28T03:47:05.276Z,18.40
2023-07-28T03:48:05.333Z,18.38
2023-07-28T03:49:05.265Z,18.37
2023-07-28T03:50:26.283Z,18.38
2023-07-28T03:51:05.255Z,18.45
2023-07-28T03:52:05.253Z,18.45
2023-07-28T03:53:05.235Z,18.43
2023-07-28T03:54:05.235Z,18.49
2023-07-28T03:55:05.240Z,18.52
2023-07-28T03:56:26.229Z,18.47
2023-07-28T03:57:05.222Z,18.49
2023-07-28T03:58:05.209Z,18.47
2023-07-28T03:59:05.216Z,18.37
2023-07-28T04:00:05.208Z,18.45
2023-07-28T04:01:05.252Z,18.41
2023-07-28T04:02:26.218Z,18.47
2023-07-28T04:03:05.174Z,18.49
2023-07-28T04:04:07.295Z,18.41
2023-07-28T04:05:05.267Z,18.52
2023-07-28T04:06:05.171Z,18.50
2023-07-28T04:07:05.163Z,18.45
2023-07-28T04:08:26.168Z,18.45
2023-07-28T04:09:05.145Z,18.44
2023-07-28T04:10:05.152Z,18.40
2023-07-28T04:11:05.132Z,18.43
2023-07-28T04:12:05.136Z,18.35
2023-07-28T04:13:05.130Z,18.43
2023-07-28T04:14:26.139Z,18.43
2023-07-28T04:15:05.113Z,18.40
2023-07-28T04:16:05.145Z,18.44
2023-07-28T04:17:05.103Z,18.47
2023-07-28T04:18:05.148Z,18.41
2023-07-28T04:19:05.093Z,18.43
2023-07-28T04:20:26.101Z,18.43
2023-07-28T04:21:05.078Z,18.44
2023-07-28T04:22:05.087Z,18.45
2023-07-28T04:23:05.084Z,18.55
2023-07-28T04:24:05.070Z,18.49
2023-07-28T04:25:05.055Z,18.55
2023-07-28T04:26:26.067Z,18.50
2023-07-28T04:27:05.047Z,18.52
2023-07-28T04:28:05.061Z,18.52
2023-07-28T04:29:05.042Z,18.53
2023-07-28T04:30:05.035Z,18.53
2023-07-28T04:31:05.045Z,18.52
2023-07-28T04:32:26.050Z,18.49
2023-07-28T04:33:05.108Z,18.47
2023-07-28T04:34:05.018Z,18.56
2023-07-28T04:35:05.004Z,18.52
2023-07-28T04:36:05.001Z,18.50
2023-07-28T04:37:04.992Z,18.56
2023-07-28T04:38:25.997Z,18.49
2023-07-28T04:39:04.980Z,18.50
2023-07-28T04:40:04.990Z,18.55
2023-07-28T04:41:04.985Z,18.53
2023-07-28T04:42:04.986Z,18.52
2023-07-28T04:43:04.960Z,18.52
2023-07-28T04:44:25.970Z,18.55
2023-07-28T04:45:04.949Z,18.56
2023-07-28T04:46:05.068Z,18.59
2023-07-28T04:47:04.937Z,18.55
2023-07-28T04:48:05.001Z,18.63
2023-07-28T04:49:04.928Z,18.59
2023-07-28T04:50:25.939Z,18.65
2023-07-28T04:51:04.928Z,18.63
2023-07-28T04:52:04.911Z,18.62
2023-07-28T04:53:04.918Z,18.63
2023-07-28T04:54:04.924Z,18.66
2023-07-28T04:55:04.891Z,18.73
2023-07-28T04:56:25.925Z,18.66
2023-07-28T04:57:04.879Z,18.75
2023-07-28T04:58:04.878Z,18.68
2023-07-28T04:59:04.870Z,18.66
2023-07-28T05:00:04.879Z,18.71
2023-07-28T05:01:04.953Z,18.71
2023-07-28T05:02:25.882Z,18.71
2023-07-28T05:03:04.846Z,18.73
2023-07-28T05:04:04.867Z,18.74
2023-07-28T05:05:04.835Z,18.71
2023-07-28T05:06:04.840Z,18.71
2023-07-28T05:07:04.830Z,18.75
2023-07-28T05:08:25.849Z,18.73
2023-07-28T05:09:04.823Z,18.73
2023-07-28T05:10:04.808Z,18.75
2023-07-28T05:11:04.810Z,18.74
2023-07-28T05:12:04.815Z,18.78
2023-07-28T05:13:04.805Z,18.77
2023-07-28T05:14:25.812Z,18.78
2023-07-28T05:15:04.792Z,18.77
2023-07-28T05:16:04.783Z,18.77
2023-07-28T05:17:04.833Z,18.75
2023-07-28T05:18:04.822Z,18.80
2023-07-28T05:19:04.765Z,18.77
2023-07-28T05:20:25.756Z,18.81
2023-07-28T05:21:04.762Z,18.92
2023-07-28T05:22:04.757Z,18.89
2023-07-28T05:23:04.742Z,18.89
2023-07-28T05:24:04.739Z,18.90
2023-07-28T05:25:04.738Z,18.90
2023-07-28T05:26:25.742Z,18.84
2023-07-28T05:27:04.725Z,18.84
2023-07-28T05:28:04.729Z,18.92
2023-07-28T05:29:04.719Z,18.96
2023-07-28T05:30:04.724Z,18.96
2023-07-28T05:31:04.736Z,19.04
2023-07-28T05:32:25.779Z,19.00
2023-07-28T05:33:04.688Z,18.98
2023-07-28T05:34:04.675Z,19.00
2023-07-28T05:35:04.682Z,19.00
2023-07-28T05:36:06.239Z,19.02
2023-07-28T05:37:04.675Z,18.99
2023-07-28T05:38:25.666Z,19.00
2023-07-28T05:39:04.653Z,18.98
2023-07-28T05:40:04.671Z,19.02
2023-07-28T05:41:04.736Z,19.07
2023-07-28T05:42:04.680Z,19.04
2023-07-28T05:43:04.650Z,19.11
2023-07-28T05:44:25.649Z,19.07
2023-07-28T05:45:04.639Z,19.08
2023-07-28T05:46:04.652Z,19.12
2023-07-28T05:47:04.622Z,19.14
2023-07-28T05:48:04.628Z,19.19
2023-07-28T05:49:04.619Z,19.18
2023-07-28T05:50:25.601Z,19.19
2023-07-28T05:51:04.596Z,19.16
2023-07-28T05:52:04.590Z,19.16
2023-07-28T05:53:04.597Z,19.16
2023-07-28T05:54:04.582Z,19.29
2023-07-28T05:55:04.577Z,19.39
2023-07-28T05:56:25.572Z,19.31
2023-07-28T05:57:04.570Z,19.30
2023-07-28T05:58:04.560Z,19.36
2023-07-28T05:59:04.559Z,19.36
2023-07-28T06:00:04.552Z,19.40
2023-07-28T06:01:04.569Z,19.39
2023-07-28T06:02:25.575Z,19.33
2023-07-28T06:03:04.612Z,19.44
2023-07-28T06:04:04.608Z,19.41
2023-07-28T06:05:04.527Z,19.49
2023-07-28T06:06:04.514Z,19.49
2023-07-28T06:07:04.524Z,19.51
2023-07-28T06:08:25.517Z,19.44
2023-07-28T06:09:04.509Z,19.51
2023-07-28T06:10:04.508Z,19.52
2023-07-28T06:11:04.514Z,19.52
2023-07-28T06:12:04.483Z,19.48
2023-07-28T06:13:04.496Z,19.44
2023-07-28T06:14:25.490Z,19.51
2023-07-28T06:15:04.491Z,19.49
2023-07-28T06:16:04.540Z,19.55
2023-07-28T06:17:04.492Z,19.56
2023-07-28T06:18:04.503Z,19.54
2023-07-28T06:19:04.461Z,19.70
2023-07-28T06:20:25.467Z,19.63
2023-07-28T06:21:04.450Z,19.67
2023-07-28T06:22:04.438Z,19.63
2023-07-28T06:23:04.444Z,19.63
2023-07-28T06:24:04.483Z,19.66
2023-07-28T06:25:04.437Z,19.76
2023-07-28T06:26:25.433Z,19.71
2023-07-28T06:27:04.428Z,19.84
2023-07-28T06:28:04.424Z,19.86
2023-07-28T06:29:04.439Z,19.85
2023-07-28T06:30:04.410Z,19.91
2023-07-28T06:31:04.428Z,19.84
2023-07-28T06:32:25.399Z,19.89
2023-07-28T06:33:04.487Z,19.89
2023-07-28T06:34:04.381Z,19.71
2023-07-28T06:35:04.380Z,19.82
2023-07-28T06:36:04.373Z,19.71
2023-07-28T06:37:04.366Z,19.67
2023-07-28T06:38:25.368Z,19.73
2023-07-28T06:39:04.362Z,19.70
2023-07-28T06:40:04.356Z,19.73
2023-07-28T06:41:04.375Z,19.73
2023-07-28T06:42:04.340Z,19.84
2023-07-28T06:43:04.338Z,19.91
2023-07-28T06:44:25.332Z,19.95
2023-07-28T06:45:04.326Z,19.94
2023-07-28T06:46:04.340Z,19.96
2023-07-28T06:47:04.317Z,19.86
2023-07-28T06:48:04.345Z,19.92
2023-07-28T06:49:04.310Z,19.91
2023-07-28T06:50:25.301Z,19.94
2023-07-28T06:51:04.306Z,19.92
2023-07-28T06:52:04.288Z,20.06
2023-07-28T06:53:04.291Z,20.18
2023-07-28T06:54:04.290Z,20.13
2023-07-28T06:55:04.278Z,20.13
2023-07-28T06:56:25.276Z,20.18
2023-07-28T06:57:04.269Z,20.11
2023-07-28T06:58:04.264Z,20.19
2023-07-28T06:59:14.729Z,20.28
2023-07-28T07:00:04.262Z,20.32
2023-07-28T07:01:04.249Z,20.26
2023-07-28T07:02:25.285Z,20.44
2023-07-28T07:03:04.283Z,20.52
2023-07-28T07:04:04.236Z,20.65
2023-07-28T07:05:04.292Z,20.66
2023-07-28T07:06:04.247Z,20.75
2023-07-28T07:07:04.218Z,20.84
2023-07-28T07:08:25.224Z,20.72
2023-07-28T07:09:04.230Z,20.77
2023-07-28T07:10:04.199Z,20.80
2023-07-28T07:11:04.214Z,20.87
2023-07-28T07:12:04.231Z,20.84
2023-07-28T07:13:04.207Z,20.95
2023-07-28T07:14:25.191Z,20.97
2023-07-28T07:15:04.267Z,20.99
2023-07-28T07:16:04.233Z,21.07
2023-07-28T07:17:04.179Z,21.00
2023-07-28T07:18:04.218Z,21.02
2023-07-28T07:19:04.182Z,21.15
2023-07-28T07:20:25.233Z,21.11
2023-07-28T07:21:04.226Z,21.21
2023-07-28T07:22:04.209Z,21.02
2023-07-28T07:23:04.163Z,21.15
2023-07-28T07:24:04.178Z,21.11
2023-07-28T07:25:04.182Z,21.12
2023-07-28T07:26:25.143Z,21.21
2023-07-28T07:27:04.188Z,21.30
2023-07-28T07:28:04.205Z,21.32
2023-07-28T07:29:04.147Z,21.33
2023-07-28T07:30:04.146Z,21.37
2023-07-28T07:31:04.211Z,21.43
2023-07-28T07:32:25.146Z,21.42
2023-07-28T07:33:04.145Z,21.43
2023-07-28T07:34:04.141Z,21.55
2023-07-28T07:35:04.131Z,21.57
2023-07-28T07:36:04.181Z,21.48
2023-07-28T07:37:04.109Z,21.30
2023-07-28T07:38:25.108Z,21.37
2023-07-28T07:39:04.133Z,21.43
2023-07-28T07:40:04.078Z,21.45
2023-07-28T07:41:04.095Z,21.51
2023-07-28T07:42:04.087Z,21.48
2023-07-28T07:43:04.084Z,21.36
2023-07-28T07:44:25.229Z,21.29
2023-07-28T07:45:04.080Z,21.39
2023-07-28T07:46:04.106Z,21.46
2023-07-28T07:47:04.077Z,21.51
2023-07-28T07:48:04.126Z,21.48
2023-07-28T07:49:04.089Z,21.54
2023-07-28T07:50:25.059Z,21.46
2023-07-28T07:51:04.086Z,21.40
2023-07-28T07:52:04.060Z,21.32
2023-07-28T07:53:04.111Z,21.27
2023-07-28T07:54:04.058Z,21.30
2023-07-28T07:55:04.087Z,21.25
2023-07-28T07:56:25.041Z,21.29
2023-07-28T07:57:04.136Z,21.32
2023-07-28T07:58:04.018Z,21.37
2023-07-28T07:59:04.024Z,21.29
2023-07-28T08:00:04.031Z,21.30
2023-07-28T08:01:04.096Z,21.32
2023-07-28T08:02:25.032Z,21.30
2023-07-28T08:03:04.069Z,21.37
2023-07-28T08:04:04.036Z,21.36
2023-07-28T08:05:04.040Z,21.46
2023-07-28T08:06:04.032Z,21.43
2023-07-28T08:07:04.016Z,21.45
2023-07-28T08:08:25.006Z,21.61
2023-07-28T08:09:04.003Z,21.62
2023-07-28T08:10:04.015Z,21.58
2023-07-28T08:11:03.988Z,21.72
2023-07-28T08:12:03.979Z,21.60
2023-07-28T08:13:03.974Z,21.67
2023-07-28T08:14:24.974Z,21.60
2023-07-28T08:15:03.973Z,21.66
2023-07-28T08:16:04.009Z,21.72
2023-07-28T08:17:03.961Z,21.76
2023-07-28T08:18:03.993Z,21.89
2023-07-28T08:19:03.960Z,21.83
2023-07-28T08:20:24.974Z,22.00
2023-07-28T08:21:03.958Z,21.99
2023-07-28T08:22:03.945Z,22.07
2023-07-28T08:23:03.940Z,22.04
2023-07-28T08:24:03.935Z,22.04
2023-07-28T08:25:03.941Z,21.96
2023-07-28T08:26:24.929Z,21.92
2023-07-28T08:27:03.969Z,21.85
2023-07-28T08:28:03.921Z,21.93
2023-07-28T08:29:03.924Z,21.88
2023-07-28T08:30:03.919Z,21.91
2023-07-28T08:31:03.932Z,21.91
2023-07-28T08:32:24.924Z,21.92
2023-07-28T08:33:03.935Z,21.96
2023-07-28T08:34:03.904Z,21.88
2023-07-28T08:35:03.901Z,21.85
2023-07-28T08:36:05.095Z,21.88
2023-07-28T08:37:03.907Z,21.95
2023-07-28T08:38:24.893Z,21.99
2023-07-28T08:39:03.886Z,22.00
2023-07-28T08:40:03.893Z,22.13
2023-07-28T08:41:03.893Z,22.02
2023-07-28T08:42:03.886Z,22.11
2023-07-28T08:43:03.873Z,22.18
2023-07-28T08:44:24.871Z,22.26
2023-07-28T08:45:03.887Z,22.25
2023-07-28T08:46:03.925Z,22.29
2023-07-28T08:47:03.860Z,22.33
2023-07-28T08:48:03.974Z,22.32
2023-07-28T08:49:03.847Z,22.48
2023-07-28T08:50:24.851Z,22.48
2023-07-28T08:51:03.845Z,22.53
2023-07-28T08:52:03.836Z,22.41
2023-07-28T08:53:03.851Z,22.30
2023-07-28T08:54:03.832Z,22.35
2023-07-28T08:55:03.834Z,22.38
2023-07-28T08:56:24.826Z,22.32
2023-07-28T08:57:03.834Z,22.38
2023-07-28T08:58:03.812Z,22.55
2023-07-28T08:59:03.824Z,22.44
2023-07-28T09:00:03.810Z,22.47
2023-07-28T09:01:03.904Z,22.44
2023-07-28T09:02:24.902Z,22.33
2023-07-28T09:03:03.859Z,22.32
2023-07-28T09:04:03.812Z,22.35
2023-07-28T09:05:03.807Z,22.32
2023-07-28T09:06:03.797Z,22.30
2023-07-28T09:07:03.794Z,22.43
2023-07-28T09:08:24.797Z,22.33
2023-07-28T09:09:10.951Z,22.36
2023-07-28T09:11:07.744Z,22.50
2023-07-28T09:12:07.701Z,22.53
2023-07-28T09:14:11.661Z,22.55
2023-07-28T09:15:11.648Z,22.65
2023-07-28T09:17:15.611Z,22.73
2023-07-28T09:18:15.594Z,22.81
2023-07-28T09:20:08.493Z,22.81
2023-07-28T09:21:08.468Z,22.81
2023-07-28T09:23:12.910Z,22.87
2023-07-28T09:24:12.914Z,22.93
2023-07-28T09:25:12.905Z,23.03
2023-07-28T09:26:12.917Z,23.12
2023-07-28T09:27:12.900Z,23.25
2023-07-28T09:28:12.969Z,23.32
2023-07-28T09:29:12.960Z,23.25
2023-07-28T09:30:12.890Z,23.24
2023-07-28T09:31:12.900Z,23.23
2023-07-28T09:32:12.881Z,23.28
2023-07-28T09:33:12.909Z,23.21
2023-07-28T09:34:12.877Z,23.13
2023-07-28T09:35:12.873Z,23.10
2023-07-28T09:36:12.869Z,23.10
2023-07-28T09:37:12.867Z,23.15
2023-07-28T09:38:12.870Z,23.13
2023-07-28T09:39:12.861Z,23.08
2023-07-28T09:40:13.007Z,23.05
2023-07-28T09:41:13.026Z,22.99
2023-07-28T09:42:12.857Z,22.88
2023-07-28T09:43:12.854Z,22.90
2023-07-28T09:44:12.853Z,22.88
2023-07-28T09:46:55.548Z,22.88
2023-07-28T09:47:55.525Z,22.81
2023-07-28T09:49:48.408Z,22.80
2023-07-28T09:50:48.389Z,22.93
2023-07-28T09:52:52.348Z,22.80
2023-07-28T09:53:52.342Z,22.91
2023-07-28T09:55:56.286Z,23.03
2023-07-28T09:56:56.285Z,23.08
2023-07-28T09:59:00.242Z,23.12
2023-07-28T10:00:00.236Z,23.12
2023-07-28T10:02:04.250Z,23.36
2023-07-28T10:03:04.254Z,23.62
2023-07-28T10:05:08.128Z,23.83
2023-07-28T10:06:08.389Z,23.88
2023-07-28T10:08:12.071Z,24.03
2023-07-28T10:09:12.069Z,24.05
2023-07-28T10:11:16.020Z,23.98
2023-07-28T10:12:16.012Z,23.91
2023-07-28T10:14:19.993Z,24.05
2023-07-28T10:15:19.957Z,24.05
2023-07-28T10:17:23.924Z,23.81
2023-07-28T10:18:23.974Z,23.73
2023-07-28T10:20:16.816Z,23.56
2023-07-28T10:21:16.798Z,23.41
2023-07-28T10:23:20.774Z,23.36
2023-07-28T10:24:20.766Z,23.39
2023-07-28T10:26:24.728Z,23.40
2023-07-28T10:27:24.700Z,23.43
2023-07-28T10:29:28.650Z,23.48
2023-07-28T10:30:28.647Z,23.58
2023-07-28T10:32:32.640Z,23.62
2023-07-28T10:33:32.598Z,23.65
2023-07-28T10:35:36.564Z,23.78
2023-07-28T10:36:36.835Z,23.81
2023-07-28T10:38:40.519Z,23.76
2023-07-28T10:39:40.520Z,23.80
2023-07-28T10:41:44.517Z,23.65
2023-07-28T10:42:44.496Z,23.55
2023-07-28T10:43:44.497Z,23.61
2023-07-28T10:44:44.500Z,23.66
2023-07-28T10:45:45.833Z,23.73
2023-07-28T10:46:44.504Z,23.83
2023-07-28T10:47:44.505Z,23.81
2023-07-28T10:48:44.486Z,23.74
2023-07-28T10:49:44.481Z,23.76
2023-07-28T10:50:44.480Z,23.68
2023-07-28T10:51:44.480Z,23.69
2023-07-28T10:52:44.481Z,23.68
2023-07-28T10:53:44.476Z,23.44
2023-07-28T10:54:44.468Z,23.43
2023-07-28T10:55:44.466Z,23.40
2023-07-28T10:56:44.466Z,23.39
2023-07-28T10:57:44.459Z,23.40
2023-07-28T10:58:44.460Z,23.37
2023-07-28T10:59:44.457Z,23.25
2023-07-28T11:00:44.451Z,23.32
2023-07-28T11:01:44.508Z,23.28
2023-07-28T11:02:44.513Z,23.25
2023-07-28T11:03:44.448Z,23.20
2023-07-28T11:04:44.443Z,23.12
2023-07-28T11:05:44.442Z,23.10
2023-07-28T11:06:44.451Z,23.20
2023-07-28T11:07:44.432Z,23.18
2023-07-28T11:08:44.438Z,23.20
2023-07-28T11:09:44.441Z,23.17
2023-07-28T11:10:44.428Z,23.23
2023-07-28T11:11:46.964Z,23.31
2023-07-28T11:12:44.419Z,23.36
2023-07-28T11:13:44.416Z,23.43
2023-07-28T11:14:44.424Z,23.40
2023-07-28T11:15:44.424Z,23.39
2023-07-28T11:16:44.451Z,23.41
2023-07-28T11:17:46.471Z,23.43
2023-07-28T11:18:44.406Z,23.27
2023-07-28T11:19:44.412Z,23.17
2023-07-28T11:20:44.404Z,23.18
2023-07-28T11:21:44.430Z,23.18
2023-07-28T11:22:45.378Z,23.13
2023-07-28T11:23:45.535Z,23.17
2023-07-28T11:24:44.389Z,23.06
2023-07-28T11:25:44.386Z,23.13
2023-07-28T11:26:44.386Z,23.23
2023-07-28T11:27:44.376Z,23.27
2023-07-28T11:28:44.384Z,23.27
2023-07-28T11:29:44.416Z,23.31
2023-07-28T11:30:44.392Z,23.25
2023-07-28T11:31:44.384Z,23.40
2023-07-28T11:32:44.419Z,23.36
2023-07-28T11:33:44.365Z,23.27
2023-07-28T11:34:44.364Z,23.44
2023-07-28T11:35:44.366Z,23.40
2023-07-28T11:36:44.386Z,23.47
2023-07-28T11:37:44.355Z,23.43
2023-07-28T11:38:44.373Z,23.37
2023-07-28T11:39:44.351Z,23.37
2023-07-28T11:40:44.358Z,23.32
2023-07-28T11:41:44.343Z,23.40
2023-07-28T11:42:44.336Z,23.47
2023-07-28T11:43:44.343Z,23.54
2023-07-28T11:44:44.371Z,23.46
2023-07-28T11:45:44.329Z,23.48
2023-07-28T11:46:44.514Z,23.46
2023-07-28T11:47:44.338Z,23.58
2023-07-28T11:48:44.344Z,23.61
2023-07-28T11:49:44.329Z,23.69
2023-07-28T11:50:44.323Z,23.78
2023-07-28T11:51:44.442Z,23.91
2023-07-28T11:52:44.330Z,23.95
2023-07-28T11:53:44.316Z,23.80
2023-07-28T11:54:44.318Z,23.77
2023-07-28T11:55:44.324Z,23.66
2023-07-28T11:56:44.323Z,23.65
2023-07-28T11:57:44.346Z,23.61
2023-07-28T11:58:44.304Z,23.47
2023-07-28T11:59:44.303Z,23.46
2023-07-28T12:00:44.348Z,23.44
2023-07-28T12:02:44.502Z,23.40
2023-07-28T12:03:44.377Z,23.40
2023-07-28T12:06:55.943Z,23.15
2023-07-28T12:07:44.279Z,23.24
2023-07-28T12:08:44.278Z,23.24
2023-07-28T12:09:44.277Z,23.13
2023-07-28T12:10:44.320Z,23.10
2023-07-28T12:14:49.445Z,23.34
2023-07-28T12:19:44.488Z,23.27
2023-07-28T12:20:44.268Z,23.27
2023-07-28T12:21:44.247Z,23.21
2023-07-28T12:22:44.267Z,23.25
2023-07-28T12:24:44.245Z,23.24
2023-07-28T12:25:44.238Z,23.25
2023-07-28T12:26:44.242Z,23.25
2023-07-28T12:27:44.231Z,23.28
2023-07-28T12:28:44.916Z,23.31
2023-07-28T12:30:44.288Z,23.28
2023-07-28T12:31:46.476Z,23.27
2023-07-28T12:34:51.529Z,23.55
2023-07-28T12:38:44.217Z,23.65
2023-07-28T12:41:46.337Z,23.87
2023-07-28T12:46:44.274Z,24.39
2023-07-28T12:47:44.262Z,24.29
2023-07-28T12:53:00.391Z,24.91
2023-07-28T12:53:26.888Z,24.88
2023-07-28T12:55:30.818Z,24.93
2023-07-28T12:59:34.762Z,25.13
2023-07-28T13:01:39.089Z,25.08
2023-07-28T13:02:39.626Z,25.03
2023-07-28T13:04:42.674Z,25.08
2023-07-28T13:05:42.672Z,25.08
2023-07-28T13:13:43.472Z,24.88
2023-07-28T13:14:43.506Z,24.80
2023-07-28T13:16:47.421Z,24.54
2023-07-28T13:17:47.458Z,24.53
2023-07-28T13:19:51.373Z,24.24
2023-07-28T13:20:51.356Z,24.06
2023-07-28T13:22:55.373Z,23.95
2023-07-28T13:23:55.314Z,23.86
2023-07-28T13:25:59.278Z,23.73
2023-07-28T13:26:59.259Z,23.74
2023-07-28T13:29:03.218Z,23.76
2023-07-28T13:30:03.220Z,23.86
2023-07-28T13:32:07.166Z,23.80
2023-07-28T13:33:07.219Z,23.83
2023-07-28T13:35:11.123Z,23.83
2023-07-28T13:36:11.102Z,23.74
2023-07-28T13:38:15.052Z,23.84
2023-07-28T13:39:15.049Z,23.98
2023-07-28T13:41:19.149Z,23.93
2023-07-28T13:42:19.166Z,23.78
2023-07-28T13:44:23.106Z,23.71
2023-07-28T13:45:22.972Z,23.65
2023-07-28T13:47:27.003Z,23.71
2023-07-28T13:48:26.934Z,23.73
2023-07-28T13:50:19.796Z,23.73
2023-07-28T13:51:21.941Z,23.81
2023-07-28T13:54:24.120Z,23.76
2023-07-28T13:56:27.673Z,23.56
2023-07-28T13:57:27.669Z,23.65
2023-07-28T13:59:31.662Z,23.73
2023-07-28T14:00:31.617Z,23.77
2023-07-28T14:02:35.636Z,23.71
2023-07-28T14:03:35.578Z,23.51
2023-07-28T14:05:39.518Z,23.40
2023-07-28T14:06:39.519Z,23.41
2023-07-28T14:08:43.473Z,23.39
2023-07-28T14:09:43.457Z,23.40
2023-07-28T14:11:47.419Z,23.41
2023-07-28T14:12:47.402Z,23.44
2023-07-28T14:14:51.356Z,23.34
2023-07-28T14:15:51.350Z,23.31
2023-07-28T14:17:55.338Z,23.31
2023-07-28T14:18:55.302Z,23.31
2023-07-28T14:20:59.261Z,23.21
2023-07-28T14:21:59.248Z,23.31